createdAt,value
2022-12-17T00:00:16.180Z,-11.80
2022-12-17T00:03:02.317Z,-11.70
2022-12-17T00:05:48.026Z,-11.80
2022-12-17T00:08:33.610Z,-11.70
2022-12-17T00:11:18.888Z,-11.70
2022-12-17T00:14:04.559Z,-11.70
2022-12-17T00:16:51.587Z,-11.80
2022-12-17T00:19:37.620Z,-11.70
2022-12-17T00:22:23.356Z,-11.80
2022-12-17T00:25:20.543Z,-11.90
2022-12-17T00:28:08.964Z,-11.90
2022-12-17T00:30:54.774Z,-11.90
2022-12-17T00:33:41.656Z,-11.90
2022-12-17T00:36:27.288Z,-11.90
2022-12-17T00:39:13.063Z,-11.90
2022-12-17T00:41:58.296Z,-11.90
2022-12-17T00:44:43.753Z,-11.90
2022-12-17T00:47:29.596Z,-11.90
2022-12-17T00:50:16.311Z,-11.90
2022-12-17T00:53:01.908Z,-11.90
2022-12-17T00:55:47.681Z,-11.80
2022-12-17T00:58:32.917Z,-11.80
2022-12-17T01:01:18.792Z,-11.80
2022-12-17T01:04:03.821Z,-11.90
2022-12-17T01:06:53.048Z,-11.90
2022-12-17T01:09:39.170Z,-11.90
2022-12-17T01:12:24.845Z,-11.90
2022-12-17T01:15:10.540Z,-11.80
2022-12-17T01:18:07.844Z,-11.80
2022-12-17T01:20:53.380Z,-11.80
2022-12-17T01:23:40.548Z,-11.80
2022-12-17T01:26:26.228Z,-11.80
2022-12-17T01:29:11.860Z,-11.90
2022-12-17T01:31:57.674Z,-11.90
2022-12-17T01:34:43.501Z,-11.90
2022-12-17T01:37:29.871Z,-12.00
2022-12-17T01:40:16.566Z,-12.00
2022-12-17T01:43:02.916Z,-11.90
2022-12-17T01:45:54.853Z,-11.90
2022-12-17T01:48:41.252Z,-11.90
2022-12-17T01:51:26.863Z,-11.90
2022-12-17T01:54:12.766Z,-11.90
2022-12-17T01:57:00.727Z,-11.80
2022-12-17T01:59:52.988Z,-11.70
2022-12-17T02:02:38.866Z,-11.60
2022-12-17T02:05:24.460Z,-11.50
2022-12-17T02:08:16.000Z,-11.40
2022-12-17T02:11:04.912Z,-11.40
2022-12-17T02:13:54.431Z,-11.40
2022-12-17T02:16:42.277Z,-11.30
2022-12-17T02:19:35.577Z,-11.30
2022-12-17T02:22:25.709Z,-11.20
2022-12-17T02:25:13.577Z,-11.10
2022-12-17T02:28:03.815Z,-11.00
2022-12-17T02:30:49.920Z,-10.90
2022-12-17T02:33:36.493Z,-10.80
2022-12-17T02:36:24.105Z,-10.60
2022-12-17T02:39:09.895Z,-10.50
2022-12-17T02:41:57.729Z,-10.40
2022-12-17T02:44:45.202Z,-10.30
2022-12-17T02:47:32.655Z,-10.20
2022-12-17T02:50:18.179Z,-10.10
2022-12-17T02:53:05.038Z,-10.00
2022-12-17T02:55:50.752Z,-10.00
2022-12-17T02:58:36.424Z,-10.00
2022-12-17T03:01:25.028Z,-9.80
2022-12-17T03:04:10.580Z,-9.90
2022-12-17T03:06:56.185Z,-9.80
2022-12-17T03:09:41.529Z,-9.80
2022-12-17T03:12:23.560Z,-9.80
2022-12-17T03:15:09.378Z,-9.80
2022-12-17T03:17:56.212Z,-9.80
2022-12-17T03:20:42.080Z,-9.70
2022-12-17T03:23:28.457Z,-9.70
2022-12-17T03:26:16.613Z,-9.60
2022-12-17T03:29:02.197Z,-9.50
2022-12-17T03:31:48.159Z,-9.50
2022-12-17T03:34:34.855Z,-9.50
2022-12-17T03:37:23.169Z,-9.40
2022-12-17T03:40:12.101Z,-9.40
2022-12-17T03:42:57.852Z,-9.40
2022-12-17T03:45:43.581Z,-9.40
2022-12-17T03:48:30.393Z,-9.40
2022-12-17T03:51:23.165Z,-9.40
2022-12-17T03:54:09.134Z,-9.40
2022-12-17T03:56:54.746Z,-9.30
2022-12-17T03:59:40.549Z,-9.30
2022-12-17T04:02:27.232Z,-9.30
2022-12-17T04:05:19.699Z,-9.20
2022-12-17T04:08:07.452Z,-9.20
2022-12-17T04:10:53.279Z,-9.20
2022-12-17T04:13:41.403Z,-9.10
2022-12-17T04:16:27.286Z,-9.10
2022-12-17T04:19:13.096Z,-9.00
2022-12-17T04:21:58.816Z,-8.90
2022-12-17T04:24:45.635Z,-8.80
2022-12-17T04:27:30.911Z,-8.80
2022-12-17T04:30:16.644Z,-8.70
2022-12-17T04:33:01.991Z,-8.70
2022-12-17T04:35:47.729Z,-8.70
2022-12-17T04:38:32.984Z,-8.70
2022-12-17T04:41:19.963Z,-8.70
2022-12-17T04:44:04.996Z,-8.60
2022-12-17T04:46:50.905Z,-8.60
2022-12-17T04:49:36.504Z,-8.60
2022-12-17T04:52:22.160Z,-8.60
2022-12-17T04:55:07.681Z,-8.70
2022-12-17T04:57:54.433Z,-8.60
2022-12-17T05:00:40.229Z,-8.70
2022-12-17T05:03:26.100Z,-8.70
2022-12-17T05:06:12.025Z,-8.70
2022-12-17T05:08:57.850Z,-8.60
2022-12-17T05:11:43.040Z,-8.70
2022-12-17T05:14:29.806Z,-8.80
2022-12-17T05:17:15.692Z,-8.80
2022-12-17T05:20:01.338Z,-8.90
2022-12-17T05:22:47.028Z,-9.00
2022-12-17T05:25:32.632Z,-9.10
2022-12-17T05:28:18.041Z,-9.20
2022-12-17T05:31:11.430Z,-9.20
2022-12-17T05:33:57.332Z,-9.30
2022-12-17T05:36:42.968Z,-9.30
2022-12-17T05:39:28.620Z,-9.40
2022-12-17T05:42:14.290Z,-9.50
2022-12-17T05:44:59.452Z,-9.60
2022-12-17T05:47:46.259Z,-9.50
2022-12-17T05:50:31.804Z,-9.50
2022-12-17T05:53:19.729Z,-9.60
2022-12-17T05:56:07.072Z,-9.60
2022-12-17T05:58:52.496Z,-9.70
2022-12-17T06:01:38.278Z,-9.70
2022-12-17T06:04:25.136Z,-9.70
2022-12-17T06:07:10.783Z,-9.80
2022-12-17T06:09:56.528Z,-9.80
2022-12-17T06:12:41.779Z,-9.80
2022-12-17T06:15:27.437Z,-9.80
2022-12-17T06:18:16.615Z,-9.80
2022-12-17T06:21:04.907Z,-9.80
2022-12-17T06:23:50.507Z,-9.80
2022-12-17T06:26:36.364Z,-9.90
2022-12-17T06:29:21.858Z,-10.00
2022-12-17T06:32:07.519Z,-10.00
2022-12-17T06:34:53.428Z,-10.00
2022-12-17T06:37:40.204Z,-10.00
2022-12-17T06:40:26.073Z,-10.00
2022-12-17T06:43:12.500Z,-10.00
2022-12-17T06:45:58.074Z,-10.00
2022-12-17T06:48:55.322Z,-9.90
2022-12-17T06:51:41.165Z,-9.90
2022-12-17T06:54:28.024Z,-9.80
2022-12-17T06:57:13.940Z,-9.90
2022-12-17T06:59:59.539Z,-9.80
2022-12-17T07:02:45.494Z,-9.70
2022-12-17T07:05:33.396Z,-9.70
2022-12-17T07:08:19.128Z,-9.70
2022-12-17T07:11:06.045Z,-9.70
2022-12-17T07:13:52.827Z,-9.70
2022-12-17T07:16:39.114Z,-9.70
2022-12-17T07:19:39.484Z,-9.70
2022-12-17T07:22:25.151Z,-9.70
2022-12-17T07:25:10.576Z,-9.70
2022-12-17T07:27:57.350Z,-9.70
2022-12-17T07:30:43.040Z,-9.60
2022-12-17T07:33:28.834Z,-9.60
2022-12-17T07:36:14.506Z,-9.60
2022-12-17T07:39:00.252Z,-9.50
2022-12-17T07:41:45.998Z,-9.50
2022-12-17T07:44:32.906Z,-9.50
2022-12-17T07:47:18.200Z,-9.50
2022-12-17T07:50:03.770Z,-9.50
2022-12-17T07:52:49.274Z,-9.50
2022-12-17T07:55:35.021Z,-9.40
2022-12-17T07:58:21.721Z,-9.40
2022-12-17T08:01:08.490Z,-9.30
2022-12-17T08:03:54.484Z,-9.30
2022-12-17T08:06:39.826Z,-9.20
2022-12-17T08:09:25.636Z,-9.20
2022-12-17T08:12:11.239Z,-9.10
2022-12-17T08:14:56.689Z,-9.10
2022-12-17T08:17:43.577Z,-9.10
2022-12-17T08:20:29.157Z,-9.00
2022-12-17T08:23:19.185Z,-9.00
2022-12-17T08:26:04.883Z,-8.90
2022-12-17T08:28:51.275Z,-8.70
2022-12-17T08:31:36.188Z,-8.60
2022-12-17T08:34:23.320Z,-8.60
2022-12-17T08:37:23.657Z,-8.50
2022-12-17T08:40:09.336Z,-8.40
2022-12-17T08:42:54.844Z,-8.30
2022-12-17T08:45:40.630Z,-8.20
2022-12-17T08:48:27.096Z,-8.10
2022-12-17T08:51:13.840Z,-8.00
2022-12-17T08:53:59.726Z,-8.00
2022-12-17T08:56:45.512Z,-7.90
2022-12-17T08:59:31.390Z,-7.90
2022-12-17T09:02:17.422Z,-7.80
2022-12-17T09:05:02.823Z,-7.70
2022-12-17T09:08:04.124Z,-7.60
2022-12-17T09:10:49.336Z,-7.40
2022-12-17T09:13:39.888Z,-7.40
2022-12-17T09:16:25.538Z,-7.30
2022-12-17T09:19:11.498Z,-7.30
2022-12-17T09:21:57.160Z,-7.20
2022-12-17T09:24:44.320Z,-7.10
2022-12-17T09:27:30.162Z,-7.00
2022-12-17T09:30:15.925Z,-6.90
2022-12-17T09:33:01.209Z,-6.90
2022-12-17T09:35:46.928Z,-6.70
2022-12-17T09:38:32.583Z,-6.60
2022-12-17T09:41:22.911Z,-6.40
2022-12-17T09:44:13.293Z,-6.30
2022-12-17T09:47:02.546Z,-6.20
2022-12-17T09:49:48.164Z,-6.00
2022-12-17T09:52:37.531Z,-5.80
2022-12-17T09:58:09.975Z,-5.50
2022-12-17T10:01:00.896Z,-5.50
2022-12-17T10:03:47.965Z,-5.30
2022-12-17T10:06:40.388Z,-5.30
2022-12-17T10:09:35.195Z,-5.20
2022-12-17T10:12:26.825Z,-4.90
2022-12-17T10:15:13.916Z,-4.80
2022-12-17T10:17:59.742Z,-4.80
2022-12-17T10:20:48.900Z,-4.70
2022-12-17T10:23:41.005Z,-4.50
2022-12-17T10:26:26.875Z,-4.50
2022-12-17T10:29:19.593Z,-4.40
2022-12-17T10:32:06.557Z,-4.30
2022-12-17T10:34:54.793Z,-4.30
2022-12-17T10:37:40.789Z,-4.20
2022-12-17T10:40:35.700Z,-4.00
2022-12-17T10:43:21.535Z,-4.00
2022-12-17T10:46:12.566Z,-4.10
2022-12-17T10:48:59.543Z,-4.00
2022-12-17T10:51:47.768Z,-4.00
2022-12-17T10:54:40.751Z,-4.10
2022-12-17T10:57:39.188Z,-3.90
2022-12-17T11:00:41.939Z,-4.00
2022-12-17T11:03:45.324Z,-3.90
2022-12-17T11:06:38.915Z,-3.90
2022-12-17T11:09:31.781Z,-3.80
2022-12-17T11:12:18.408Z,-3.90
2022-12-17T11:15:07.845Z,-3.90
2022-12-17T11:17:55.226Z,-3.80
2022-12-17T11:20:41.811Z,-3.90
2022-12-17T11:23:33.230Z,-3.80
2022-12-17T11:26:21.093Z,-3.70
2022-12-17T11:29:06.914Z,-3.60
2022-12-17T11:32:09.923Z,-3.60
2022-12-17T11:35:02.721Z,-3.40
2022-12-17T11:37:52.940Z,-3.40
2022-12-17T11:40:46.838Z,-3.40
2022-12-17T11:43:35.906Z,-3.30
2022-12-17T11:46:26.678Z,-3.20
2022-12-17T11:49:16.265Z,-3.20
2022-12-17T11:52:05.290Z,-3.20
2022-12-17T11:54:55.765Z,-3.30
2022-12-17T11:57:48.528Z,-3.10
2022-12-17T12:00:35.356Z,-3.20
2022-12-17T12:03:30.292Z,-3.10
2022-12-17T12:06:17.204Z,-3.10
2022-12-17T12:09:06.464Z,-3.20
2022-12-17T12:11:55.637Z,-3.20
2022-12-17T12:14:48.481Z,-3.10
2022-12-17T12:17:43.337Z,-3.10
2022-12-17T12:20:35.012Z,-3.00
2022-12-17T12:23:24.380Z,-3.00
2022-12-17T12:26:16.171Z,-2.90
2022-12-17T12:29:03.609Z,-3.00
2022-12-17T12:31:53.235Z,-2.90
2022-12-17T12:34:40.563Z,-2.80
2022-12-17T12:37:26.602Z,-2.90
2022-12-17T12:40:14.895Z,-2.90
2022-12-17T12:43:01.781Z,-3.00
2022-12-17T12:45:57.817Z,-2.90
2022-12-17T12:48:54.929Z,-2.90
2022-12-17T12:51:42.160Z,-2.90
2022-12-17T12:54:41.165Z,-2.90
2022-12-17T12:57:50.096Z,-2.90
2022-12-17T13:00:47.085Z,-2.80
2022-12-17T13:03:39.609Z,-2.70
2022-12-17T13:06:09.768Z,-2.80
2022-12-17T13:08:38.585Z,-2.70
2022-12-17T13:11:28.482Z,-2.70
2022-12-17T13:13:58.850Z,-2.80
2022-12-17T13:16:32.687Z,-2.70
2022-12-17T13:19:04.759Z,-2.70
2022-12-17T13:21:34.452Z,-2.70
2022-12-17T13:24:11.487Z,-2.70
2022-12-17T13:26:46.333Z,-2.60
2022-12-17T13:29:21.079Z,-2.60
2022-12-17T13:32:04.207Z,-2.70
2022-12-17T13:34:37.992Z,-2.60
2022-12-17T13:37:09.684Z,-2.60
2022-12-17T13:39:40.788Z,-2.70
2022-12-17T13:42:17.298Z,-2.60
2022-12-17T13:44:46.599Z,-2.60
2022-12-17T13:47:22.045Z,-2.50
2022-12-17T13:50:24.467Z,-2.50
2022-12-17T13:52:43.115Z,-2.50
2022-12-17T13:55:18.048Z,-2.60
2022-12-17T13:57:49.082Z,-2.50
2022-12-17T14:00:21.598Z,-2.50
2022-12-17T14:02:50.032Z,-2.60
2022-12-17T14:05:23.628Z,-2.50
2022-12-17T14:07:53.988Z,-2.50
2022-12-17T14:10:25.209Z,-2.40
2022-12-17T14:12:52.485Z,-2.40
2022-12-17T14:15:24.824Z,-2.40
2022-12-17T14:17:53.715Z,-2.40
2022-12-17T14:20:23.192Z,-2.40
2022-12-17T14:22:52.157Z,-2.40
2022-12-17T14:25:23.012Z,-2.40
2022-12-17T14:27:53.736Z,-2.50
2022-12-17T14:30:23.686Z,-2.40
2022-12-17T14:32:52.333Z,-2.40
2022-12-17T14:35:27.678Z,-2.40
2022-12-17T14:37:56.249Z,-2.40
2022-12-17T14:40:27.726Z,-2.30
2022-12-17T14:42:59.835Z,-2.40
2022-12-17T14:45:28.724Z,-2.30
2022-12-17T14:47:58.368Z,-2.30
2022-12-17T14:50:32.074Z,-2.30
2022-12-17T14:53:00.824Z,-2.30
2022-12-17T14:55:37.661Z,-2.30
2022-12-17T14:58:10.256Z,-2.30
2022-12-17T15:00:39.402Z,-2.30
2022-12-17T15:03:10.599Z,-2.30
2022-12-17T15:05:39.348Z,-2.30
2022-12-17T15:08:07.490Z,-2.30
2022-12-17T15:10:37.155Z,-2.30
2022-12-17T15:13:05.503Z,-2.30
2022-12-17T15:15:33.613Z,-2.30
2022-12-17T15:18:01.770Z,-2.30
2022-12-17T15:20:30.012Z,-2.40
2022-12-17T15:23:00.256Z,-2.50
2022-12-17T15:25:28.555Z,-2.40
2022-12-17T15:27:58.115Z,-2.30
2022-12-17T15:30:26.364Z,-2.30
2022-12-17T15:32:54.576Z,-2.30
2022-12-17T15:35:23.075Z,-2.20
2022-12-17T15:37:51.346Z,-2.30
2022-12-17T15:40:19.749Z,-2.20
2022-12-17T15:43:06.466Z,-2.20
2022-12-17T15:45:36.328Z,-2.20
2022-12-17T15:48:07.591Z,-2.20
2022-12-17T15:50:35.993Z,-2.10
2022-12-17T15:53:04.181Z,-2.10
2022-12-17T15:55:32.516Z,-2.10
2022-12-17T15:58:00.808Z,-2.10
2022-12-17T16:00:28.971Z,-2.10
2022-12-17T16:02:59.163Z,-2.10
2022-12-17T16:05:27.363Z,-2.10
2022-12-17T16:07:59.199Z,-2.10
2022-12-17T16:10:27.539Z,-2.10
2022-12-17T16:12:55.603Z,-2.10
2022-12-17T16:15:23.786Z,-2.10
2022-12-17T16:17:52.018Z,-2.10
2022-12-17T16:20:22.572Z,-2.20
2022-12-17T16:22:50.813Z,-2.10
2022-12-17T16:25:19.561Z,-2.20
2022-12-17T16:27:47.706Z,-2.20
2022-12-17T16:30:15.795Z,-2.10
2022-12-17T16:32:44.080Z,-2.10
2022-12-17T16:35:12.215Z,-2.10
2022-12-17T16:37:41.763Z,-2.00
2022-12-17T16:40:11.062Z,-2.00
2022-12-17T16:42:39.213Z,-2.00
2022-12-17T16:45:08.314Z,-2.10
2022-12-17T16:47:36.465Z,-2.10
2022-12-17T16:50:04.798Z,-2.10
2022-12-17T16:52:33.077Z,-2.20
2022-12-17T16:55:02.759Z,-2.20
2022-12-17T16:57:30.848Z,-2.10
2022-12-17T16:59:59.045Z,-2.10
2022-12-17T17:02:27.370Z,-2.10
2022-12-17T17:04:55.617Z,-2.20
2022-12-17T17:07:23.818Z,-2.10
2022-12-17T17:09:51.979Z,-2.10
2022-12-17T17:12:21.528Z,-2.10
2022-12-17T17:14:49.679Z,-2.10
2022-12-17T17:17:18.111Z,-2.10
2022-12-17T17:19:46.309Z,-2.10
2022-12-17T17:22:14.463Z,-2.10
2022-12-17T17:24:42.799Z,-2.20
2022-12-17T17:27:10.925Z,-2.20
2022-12-17T17:29:41.697Z,-2.20
2022-12-17T17:32:13.190Z,-2.20
2022-12-17T17:34:41.958Z,-2.10
2022-12-17T17:37:10.295Z,-2.10
2022-12-17T17:39:38.392Z,-2.20
2022-12-17T17:42:06.938Z,-2.20
2022-12-17T17:44:38.444Z,-2.20
2022-12-17T17:47:08.053Z,-2.20
2022-12-17T17:49:36.364Z,-2.30
2022-12-17T17:52:12.303Z,-2.20
2022-12-17T17:54:41.033Z,-2.20
2022-12-17T17:57:09.622Z,-2.10
2022-12-17T17:59:39.590Z,-2.10
2022-12-17T18:02:11.125Z,-2.20
2022-12-17T18:04:40.073Z,-2.10
2022-12-17T18:07:24.692Z,-2.10
2022-12-17T18:09:56.046Z,-2.10
2022-12-17T18:12:41.563Z,-2.10
2022-12-17T18:15:15.269Z,-2.20
2022-12-17T18:17:46.328Z,-2.10
2022-12-17T18:20:14.699Z,-2.10
2022-12-17T18:22:42.993Z,-2.10
2022-12-17T18:25:11.112Z,-2.00
2022-12-17T18:27:39.263Z,-2.00
2022-12-17T18:30:10.459Z,-2.00
2022-12-17T18:32:38.767Z,-2.00
2022-12-17T18:35:09.080Z,-2.00
2022-12-17T18:37:37.682Z,-2.00
2022-12-17T18:40:06.731Z,-2.00
2022-12-17T18:42:52.421Z,-2.00
2022-12-17T18:45:20.572Z,-2.00
2022-12-17T18:47:48.888Z,-2.00
2022-12-17T18:50:18.530Z,-2.00
2022-12-17T18:52:46.631Z,-2.00
2022-12-17T18:55:18.100Z,-2.10
2022-12-17T18:57:46.267Z,-2.10
2022-12-17T19:00:15.005Z,-2.10
2022-12-17T19:02:45.797Z,-2.10
2022-12-17T19:05:14.085Z,-2.10
2022-12-17T19:07:43.854Z,-2.10
2022-12-17T19:10:12.191Z,-2.10
2022-12-17T19:12:42.686Z,-2.10
2022-12-17T19:15:11.950Z,-2.10
2022-12-17T19:17:40.081Z,-2.00
2022-12-17T19:20:08.824Z,-2.10
2022-12-17T19:22:37.012Z,-2.00
2022-12-17T19:25:06.993Z,-2.00
2022-12-17T19:27:43.864Z,-2.00
2022-12-17T19:30:12.437Z,-2.10
2022-12-17T19:32:40.579Z,-2.00
2022-12-17T19:35:09.025Z,-2.00
2022-12-17T19:37:39.647Z,-1.90
2022-12-17T19:40:10.110Z,-1.90
2022-12-17T19:42:38.445Z,-1.80
2022-12-17T19:45:09.656Z,-1.90
2022-12-17T19:47:37.778Z,-1.80
2022-12-17T19:50:06.380Z,-1.70
2022-12-17T19:52:34.468Z,-1.70
2022-12-17T19:55:02.821Z,-1.70
2022-12-17T19:57:32.873Z,-1.70
2022-12-17T20:00:00.980Z,-1.70
2022-12-17T20:02:32.833Z,-1.70
2022-12-17T20:05:01.917Z,-1.80
2022-12-17T20:07:30.087Z,-1.90
2022-12-17T20:09:58.254Z,-1.90
2022-12-17T20:12:29.073Z,-1.90
2022-12-17T20:14:58.632Z,-1.90
2022-12-17T20:17:27.423Z,-1.80
2022-12-17T20:19:57.997Z,-1.80
2022-12-17T20:22:30.840Z,-1.70
2022-12-17T20:25:01.626Z,-1.70
2022-12-17T20:27:30.238Z,-1.70
2022-12-17T20:29:59.768Z,-1.60
2022-12-17T20:32:30.245Z,-1.50
2022-12-17T20:34:58.439Z,-1.40
2022-12-17T20:37:26.563Z,-1.40
2022-12-17T20:39:56.364Z,-1.40
2022-12-17T20:42:24.668Z,-1.40
2022-12-17T20:44:54.846Z,-1.30
2022-12-17T20:47:24.568Z,-1.40
2022-12-17T20:49:52.662Z,-1.40
2022-12-17T20:52:22.934Z,-1.50
2022-12-17T20:54:51.030Z,-1.50
2022-12-17T20:57:19.257Z,-1.50
2022-12-17T20:59:47.551Z,-1.50
2022-12-17T21:02:19.275Z,-1.50
2022-12-17T21:04:49.225Z,-1.50
2022-12-17T21:07:17.469Z,-1.50
2022-12-17T21:09:45.583Z,-1.40
2022-12-17T21:12:13.812Z,-1.40
2022-12-17T21:14:42.001Z,-1.40
2022-12-17T21:17:10.184Z,-1.30
2022-12-17T21:19:38.568Z,-1.30
2022-12-17T21:22:08.640Z,-1.30
2022-12-17T21:24:39.266Z,-1.20
2022-12-17T21:27:14.254Z,-1.30
2022-12-17T21:29:43.021Z,-1.20
2022-12-17T21:32:11.260Z,-1.20
2022-12-17T21:34:39.729Z,-1.20
2022-12-17T21:37:11.328Z,-1.20
2022-12-17T21:39:39.773Z,-1.10
2022-12-17T21:42:25.272Z,-1.10
2022-12-17T21:44:53.421Z,-1.20
2022-12-17T21:47:22.275Z,-1.10
2022-12-17T21:49:50.692Z,-1.20
2022-12-17T21:52:20.256Z,-1.10
2022-12-17T21:54:48.521Z,-1.10
2022-12-17T21:57:16.937Z,-1.10
2022-12-17T21:59:45.104Z,-1.10
2022-12-17T22:02:13.285Z,-1.10
2022-12-17T22:04:41.786Z,-1.00
2022-12-17T22:07:11.646Z,-1.00
2022-12-17T22:10:16.662Z,-1.00
2022-12-17T22:12:52.946Z,-0.80
2022-12-17T22:15:21.060Z,-0.80
2022-12-17T22:17:51.145Z,-0.90
2022-12-17T22:20:19.432Z,-0.80
2022-12-17T22:22:47.553Z,-0.90
2022-12-17T22:25:17.337Z,-0.80
2022-12-17T22:27:45.789Z,-0.80
2022-12-17T22:30:32.891Z,-0.80
2022-12-17T22:33:02.898Z,-0.70
2022-12-17T22:38:38.370Z,-0.80
2022-12-17T22:42:26.851Z,-0.80
2022-12-17T22:44:41.939Z,-0.70
2022-12-17T22:44:48.350Z,-0.60
2022-12-17T22:47:16.528Z,-0.70
2022-12-17T22:49:44.819Z,-0.70
2022-12-17T22:52:13.108Z,-0.70
2022-12-17T22:54:42.613Z,-0.70
2022-12-17T22:57:36.309Z,-0.70
2022-12-17T23:00:00.840Z,-0.60
2022-12-17T23:02:29.019Z,-0.70
2022-12-17T23:04:57.189Z,-0.60
2022-12-17T23:07:31.433Z,-0.60
2022-12-17T23:10:00.227Z,-0.60
2022-12-17T23:12:47.361Z,-0.60
2022-12-17T23:15:15.566Z,-0.60
2022-12-17T23:17:43.696Z,-0.60
2022-12-17T23:20:12.463Z,-0.50
2022-12-17T23:22:40.620Z,-0.50
2022-12-17T23:25:09.559Z,-0.50
2022-12-17T23:27:39.235Z,-0.50
2022-12-17T23:30:07.975Z,-0.50
2022-12-17T23:32:39.312Z,-0.50
2022-12-17T23:35:08.008Z,-0.60
2022-12-17T23:37:39.754Z,-0.50
2022-12-17T23:40:09.088Z,-0.50
2022-12-17T23:42:38.698Z,-0.50
2022-12-17T23:45:07.561Z,-0.50
2022-12-17T23:47:35.944Z,-0.50
2022-12-17T23:50:04.273Z,-0.40
2022-12-17T23:52:32.395Z,-0.40
2022-12-17T23:55:00.575Z,-0.30
2022-12-17T23:57:29.413Z,-0.40
2022-12-17T23:59:58.997Z,-0.40
